createdAt,value
2023-05-16T00:00:38.113Z,94694.94
2023-05-16T00:03:05.499Z,94703.91
2023-05-16T00:05:32.212Z,94688.06
2023-05-16T00:07:58.825Z,94710.06
2023-05-16T00:10:26.754Z,94711.63
2023-05-16T00:12:53.783Z,94677.63
2023-05-16T00:15:20.620Z,94679.69
2023-05-16T00:17:47.388Z,94696.19
2023-05-16T00:20:14.358Z,94693.00
2023-05-16T00:22:42.082Z,94662.41
2023-05-16T00:25:09.696Z,94698.22
2023-05-16T00:27:37.098Z,94694.00
2023-05-16T00:30:04.649Z,94664.81
2023-05-16T00:32:32.065Z,94676.75
2023-05-16T00:34:59.242Z,94670.47
2023-05-16T00:37:26.017Z,94670.03
2023-05-16T00:39:52.789Z,94674.47
2023-05-16T00:42:21.109Z,94654.22
2023-05-16T00:44:48.491Z,94659.97
2023-05-16T00:47:15.572Z,94658.16
2023-05-16T00:49:42.706Z,94674.59
2023-05-16T00:52:09.916Z,94635.63
2023-05-16T00:54:37.139Z,94589.16
2023-05-16T00:57:06.908Z,94588.91
2023-05-16T00:59:34.186Z,94651.63
2023-05-16T01:02:01.365Z,94583.34
2023-05-16T01:04:28.640Z,94625.34
2023-05-16T01:06:57.235Z,94598.34
2023-05-16T01:09:24.448Z,94597.59
2023-05-16T01:11:56.159Z,94636.78
2023-05-16T01:14:30.518Z,94645.59
2023-05-16T01:17:08.534Z,94645.47
2023-05-16T01:19:38.099Z,94643.81
2023-05-16T01:22:37.886Z,94639.84
2023-05-16T01:25:38.755Z,94634.50
2023-05-16T01:28:06.482Z,94642.13
2023-05-16T01:30:36.351Z,94639.41
2023-05-16T01:33:04.115Z,94628.13
2023-05-16T01:35:31.622Z,94588.13
2023-05-16T01:38:08.814Z,94627.66
2023-05-16T01:40:42.053Z,94616.13
2023-05-16T01:43:14.477Z,94605.28
2023-05-16T01:45:51.311Z,94589.75
2023-05-16T01:48:23.733Z,94566.44
2023-05-16T01:50:56.622Z,94608.94
2023-05-16T01:53:28.646Z,94609.50
2023-05-16T01:56:01.946Z,94566.66
2023-05-16T01:58:33.151Z,94600.63
2023-05-16T02:01:05.930Z,94544.63
2023-05-16T02:03:34.087Z,94597.28
2023-05-16T02:06:01.426Z,94603.22
2023-05-16T02:08:29.086Z,94597.16
2023-05-16T02:10:56.050Z,94588.56
2023-05-16T02:13:23.171Z,94591.25
2023-05-16T02:15:50.324Z,94590.53
2023-05-16T02:18:18.910Z,94595.78
2023-05-16T02:20:45.928Z,94585.41
2023-05-16T02:23:12.866Z,94585.81
2023-05-16T02:25:39.769Z,94589.31
2023-05-16T02:28:06.993Z,94587.44
2023-05-16T02:30:33.971Z,94604.28
2023-05-16T02:33:01.494Z,94599.81
2023-05-16T02:35:29.839Z,94588.97
2023-05-16T02:37:57.328Z,94565.16
2023-05-16T02:40:24.072Z,94595.19
2023-05-16T02:42:52.580Z,94595.59
2023-05-16T02:45:23.642Z,94544.66
2023-05-16T02:47:51.135Z,94594.81
2023-05-16T02:50:17.981Z,94579.28
2023-05-16T02:52:44.857Z,94589.69
2023-05-16T02:55:34.926Z,94592.44
2023-05-16T02:57:58.735Z,94578.78
2023-05-16T03:00:25.574Z,94574.16
2023-05-16T03:02:52.756Z,94588.66
2023-05-16T03:05:25.545Z,94580.91
2023-05-16T03:07:53.589Z,94572.44
2023-05-16T03:10:20.513Z,94546.16
2023-05-16T03:12:47.323Z,94571.69
2023-05-16T03:15:14.251Z,94566.06
2023-05-16T03:17:40.927Z,94562.84
2023-05-16T03:20:09.232Z,94576.19
2023-05-16T03:22:35.966Z,94572.94
2023-05-16T03:25:02.770Z,94582.97
2023-05-16T03:27:29.538Z,94576.06
2023-05-16T03:29:56.258Z,94575.44
2023-05-16T03:32:23.942Z,94562.91
2023-05-16T03:34:50.520Z,94583.13
2023-05-16T03:37:20.979Z,94578.06
2023-05-16T03:39:48.178Z,94518.53
2023-05-16T03:42:14.898Z,94515.19
2023-05-16T03:44:41.655Z,94549.06
2023-05-16T03:47:08.284Z,94541.63
2023-05-16T03:49:37.029Z,94532.06
2023-05-16T03:52:06.289Z,94572.59
2023-05-16T03:54:33.263Z,94571.03
2023-05-16T03:57:00.608Z,94578.19
2023-05-16T03:59:27.322Z,94535.13
2023-05-16T04:01:54.046Z,94563.66
2023-05-16T04:04:21.058Z,94577.69
2023-05-16T04:06:47.856Z,94574.81
2023-05-16T04:09:14.552Z,94530.66
2023-05-16T04:11:41.531Z,94569.94
2023-05-16T04:14:08.492Z,94587.28
2023-05-16T04:16:35.392Z,94561.31
2023-05-16T04:19:02.235Z,94589.19
2023-05-16T04:21:29.631Z,94573.94
2023-05-16T04:23:57.828Z,94571.47
2023-05-16T04:26:25.821Z,94575.72
2023-05-16T04:28:53.129Z,94592.91
2023-05-16T04:31:20.324Z,94585.78
2023-05-16T04:33:47.396Z,94514.63
2023-05-16T04:36:14.798Z,94566.72
2023-05-16T04:38:41.934Z,94524.59
2023-05-16T04:41:09.051Z,94576.31
2023-05-16T04:43:35.989Z,94544.84
2023-05-16T04:46:04.162Z,94539.38
2023-05-16T04:48:31.261Z,94569.22
2023-05-16T04:50:57.987Z,94580.59
2023-05-16T04:53:24.876Z,94566.31
2023-05-16T04:55:51.882Z,94578.41
2023-05-16T04:58:18.776Z,94515.91
2023-05-16T05:00:45.901Z,94503.53
2023-05-16T05:03:12.664Z,94546.25
2023-05-16T05:05:39.561Z,94570.47
2023-05-16T05:08:07.002Z,94571.94
2023-05-16T05:10:33.727Z,94581.91
2023-05-16T05:13:00.584Z,94572.00
2023-05-16T05:15:27.571Z,94554.47
2023-05-16T05:17:55.630Z,94560.75
2023-05-16T05:20:22.637Z,94576.81
2023-05-16T05:22:49.463Z,94571.25
2023-05-16T05:25:16.095Z,94559.78
2023-05-16T05:27:43.164Z,94576.31
2023-05-16T05:30:10.207Z,94549.16
2023-05-16T05:32:37.340Z,94563.34
2023-05-16T05:35:04.607Z,94535.41
2023-05-16T05:37:31.337Z,94550.03
2023-05-16T05:39:58.054Z,94542.13
2023-05-16T05:42:24.665Z,94545.22
2023-05-16T05:44:51.821Z,94549.16
2023-05-16T05:47:18.584Z,94538.22
2023-05-16T05:49:45.358Z,94529.47
2023-05-16T05:52:15.534Z,94537.47
2023-05-16T05:54:42.209Z,94510.09
2023-05-16T05:57:09.011Z,94532.88
2023-05-16T05:59:36.339Z,94552.44
2023-05-16T06:02:04.100Z,94550.97
2023-05-16T06:04:31.222Z,94544.50
2023-05-16T06:06:58.246Z,94530.03
2023-05-16T06:09:25.111Z,94521.34
2023-05-16T06:11:51.948Z,94552.59
2023-05-16T06:14:20.919Z,94559.84
2023-05-16T06:16:47.880Z,94541.69
2023-05-16T06:19:16.342Z,94476.03
2023-05-16T06:21:43.831Z,94523.22
2023-05-16T06:24:10.604Z,94522.97
2023-05-16T06:26:38.674Z,94537.47
2023-05-16T06:29:05.404Z,94542.97
2023-05-16T06:31:32.497Z,94490.31
2023-05-16T06:33:59.848Z,94520.03
2023-05-16T06:36:27.093Z,94557.22
2023-05-16T06:38:53.730Z,94555.22
2023-05-16T06:41:21.802Z,94528.28
2023-05-16T06:43:48.751Z,94525.53
2023-05-16T06:46:16.099Z,94542.00
2023-05-16T06:48:43.035Z,94521.31
2023-05-16T06:51:10.546Z,94532.78
2023-05-16T06:53:37.228Z,94519.81
2023-05-16T06:56:04.311Z,94480.88
2023-05-16T06:58:31.284Z,94509.56
2023-05-16T07:00:58.315Z,94504.06
2023-05-16T07:03:25.350Z,94480.66
2023-05-16T07:05:53.177Z,94496.56
2023-05-16T07:08:19.927Z,94494.56
2023-05-16T07:10:46.763Z,94488.13
2023-05-16T07:13:13.714Z,94444.69
2023-05-16T07:15:40.816Z,94488.13
2023-05-16T07:18:07.939Z,94477.34
2023-05-16T07:20:34.763Z,94482.34
2023-05-16T07:23:04.167Z,94482.56
2023-05-16T07:25:31.011Z,94484.84
2023-05-16T07:27:57.670Z,94479.09
2023-05-16T07:30:24.705Z,94458.88
2023-05-16T07:32:51.695Z,94485.25
2023-05-16T07:35:18.874Z,94472.25
2023-05-16T07:37:46.262Z,94499.41
2023-05-16T07:40:13.794Z,94503.84
2023-05-16T07:42:40.886Z,94511.81
2023-05-16T07:45:08.440Z,94512.72
2023-05-16T07:47:35.846Z,94477.28
2023-05-16T07:50:03.047Z,94507.16
2023-05-16T07:52:30.068Z,94514.59
2023-05-16T07:54:57.064Z,94481.84
2023-05-16T07:57:25.329Z,94477.84
2023-05-16T07:59:52.905Z,94471.16
2023-05-16T08:02:20.025Z,94515.91
2023-05-16T08:04:47.151Z,94457.81
2023-05-16T08:07:13.872Z,94472.53
2023-05-16T08:09:40.529Z,94477.94
2023-05-16T08:12:08.742Z,94456.25
2023-05-16T08:14:38.364Z,94425.66
2023-05-16T08:17:05.458Z,94453.28
2023-05-16T08:19:33.890Z,94447.16
2023-05-16T08:22:01.134Z,94389.03
2023-05-16T08:24:27.918Z,94466.13
2023-05-16T08:26:54.837Z,94424.53
2023-05-16T08:29:22.218Z,94458.34
2023-05-16T08:31:49.143Z,94439.78
2023-05-16T08:34:16.022Z,94465.44
2023-05-16T08:36:43.109Z,94457.63
2023-05-16T08:39:12.160Z,94448.09
2023-05-16T08:41:39.822Z,94444.03
2023-05-16T08:44:10.482Z,94461.88
2023-05-16T08:46:40.946Z,94429.19
2023-05-16T08:49:09.497Z,94460.28
2023-05-16T08:51:37.918Z,94405.81
2023-05-16T08:54:11.009Z,94458.34
2023-05-16T08:56:38.694Z,94465.53
2023-05-16T08:59:06.006Z,94479.50
2023-05-16T09:01:33.416Z,94477.16
2023-05-16T09:04:01.199Z,94471.56
2023-05-16T09:06:28.319Z,94457.09
2023-05-16T09:08:55.506Z,94462.63
2023-05-16T09:11:22.674Z,94455.72
2023-05-16T09:13:50.049Z,94444.69
2023-05-16T09:16:19.840Z,94456.38
2023-05-16T09:18:58.545Z,94456.38
2023-05-16T09:21:31.989Z,94417.19
2023-05-16T09:24:06.256Z,94475.88
2023-05-16T09:26:34.998Z,94456.47
2023-05-16T09:29:02.403Z,94461.66
2023-05-16T09:31:37.945Z,94468.88
2023-05-16T09:34:08.193Z,94476.47
2023-05-16T09:36:35.435Z,94456.22
2023-05-16T09:39:02.283Z,94459.72
2023-05-16T09:41:29.756Z,94458.06
2023-05-16T09:43:56.526Z,94468.09
2023-05-16T09:46:28.284Z,94452.19
2023-05-16T09:48:55.554Z,94471.19
2023-05-16T09:51:26.954Z,94445.25
2023-05-16T09:53:53.968Z,94405.06
2023-05-16T09:56:21.679Z,94444.06
2023-05-16T09:58:48.530Z,94460.00
2023-05-16T10:01:15.160Z,94452.03
2023-05-16T10:03:46.364Z,94453.69
2023-05-16T10:06:13.987Z,94443.03
2023-05-16T10:08:43.286Z,94455.69
2023-05-16T10:11:11.611Z,94446.34
2023-05-16T10:13:39.212Z,94455.44
2023-05-16T10:16:12.590Z,94464.28
2023-05-16T10:18:40.598Z,94444.94
2023-05-16T10:21:15.125Z,94464.34
2023-05-16T10:23:43.136Z,94456.19
2023-05-16T10:26:14.156Z,94446.44
2023-05-16T10:28:41.480Z,94448.16
2023-05-16T10:31:09.961Z,94440.69
2023-05-16T10:33:38.063Z,94410.28
2023-05-16T10:36:05.687Z,94431.22
2023-05-16T10:38:33.801Z,94430.81
2023-05-16T10:41:00.860Z,94408.69
2023-05-16T10:43:31.010Z,94412.31
2023-05-16T10:46:11.637Z,94380.09
2023-05-16T10:48:40.230Z,94397.00
2023-05-16T10:51:32.924Z,94393.81
2023-05-16T10:54:06.764Z,94371.59
2023-05-16T10:56:35.161Z,94386.53
2023-05-16T10:59:02.531Z,94406.31
2023-05-16T11:01:32.590Z,94404.44
2023-05-16T11:04:02.316Z,94432.06
2023-05-16T11:06:33.313Z,94446.19
2023-05-16T11:08:59.911Z,94447.47
2023-05-16T11:11:47.354Z,94461.97
2023-05-16T11:14:34.384Z,94458.00
2023-05-16T11:17:13.791Z,94456.09
2023-05-16T11:19:49.703Z,94459.63
2023-05-16T11:22:19.096Z,94466.84
2023-05-16T11:25:05.944Z,94472.50
2023-05-16T11:27:36.203Z,94466.44
2023-05-16T11:30:05.876Z,94472.78
2023-05-16T11:32:38.006Z,94467.38
2023-05-16T11:35:08.145Z,94449.19
2023-05-16T11:37:41.816Z,94451.53
2023-05-16T11:40:11.585Z,94447.81
2023-05-16T11:42:44.311Z,94435.06
2023-05-16T11:45:19.992Z,94438.56
2023-05-16T11:47:49.281Z,94439.22
2023-05-16T11:50:22.302Z,94444.75
2023-05-16T11:52:57.647Z,94439.63
2023-05-16T11:55:41.385Z,94440.16
2023-05-16T11:58:09.899Z,94448.78
2023-05-16T12:00:36.582Z,94438.88
2023-05-16T12:03:05.773Z,94429.59
2023-05-16T12:05:35.084Z,94429.19
2023-05-16T12:08:02.880Z,94394.75
2023-05-16T12:10:31.661Z,94406.50
2023-05-16T12:12:58.569Z,94398.44
2023-05-16T12:15:25.742Z,94394.44
2023-05-16T12:17:53.088Z,94396.72
2023-05-16T12:20:20.131Z,94409.41
2023-05-16T12:22:47.098Z,94415.09
2023-05-16T12:25:32.357Z,94411.78
2023-05-16T12:28:02.013Z,94404.81
2023-05-16T12:30:31.208Z,94378.41
2023-05-16T12:33:09.758Z,94407.25
2023-05-16T12:35:39.378Z,94400.63
2023-05-16T12:38:17.261Z,94408.91
2023-05-16T12:40:48.995Z,94369.88
2023-05-16T12:43:16.707Z,94404.44
2023-05-16T12:45:51.405Z,94413.31
2023-05-16T12:48:18.589Z,94408.47
2023-05-16T12:50:48.913Z,94405.66
2023-05-16T12:53:18.038Z,94401.50
2023-05-16T12:55:45.207Z,94411.47
2023-05-16T12:58:12.692Z,94415.50
2023-05-16T13:00:39.704Z,94407.69
2023-05-16T13:03:07.969Z,94417.41
2023-05-16T13:05:36.245Z,94423.91
2023-05-16T13:08:03.371Z,94414.84
2023-05-16T13:10:30.285Z,94432.06
2023-05-16T13:13:00.055Z,94433.03
2023-05-16T13:15:27.634Z,94422.94
2023-05-16T13:17:54.921Z,94406.16
2023-05-16T13:20:21.974Z,94424.00
2023-05-16T13:22:48.978Z,94419.03
2023-05-16T13:25:16.185Z,94414.97
2023-05-16T13:27:43.060Z,94408.59
2023-05-16T13:30:12.766Z,94409.56
2023-05-16T13:32:39.629Z,94426.56
2023-05-16T13:35:06.850Z,94423.91
2023-05-16T13:37:34.131Z,94411.75
2023-05-16T13:40:00.879Z,94422.19
2023-05-16T13:42:27.801Z,94418.81
2023-05-16T13:44:54.584Z,94419.84
2023-05-16T13:47:21.485Z,94405.06
2023-05-16T13:49:48.593Z,94425.81
2023-05-16T13:52:15.332Z,94446.97
2023-05-16T13:54:42.075Z,94431.53
2023-05-16T13:57:08.823Z,94445.69
2023-05-16T14:00:05.776Z,94444.19
2023-05-16T14:02:26.431Z,94456.25
2023-05-16T14:04:54.087Z,94462.31
2023-05-16T14:07:20.904Z,94395.34
2023-05-16T14:09:47.675Z,94477.03
2023-05-16T14:12:14.606Z,94418.94
2023-05-16T14:14:41.698Z,94474.63
2023-05-16T14:17:08.511Z,94449.84
2023-05-16T14:19:35.788Z,94460.16
2023-05-16T14:22:02.927Z,94448.66
2023-05-16T14:24:29.624Z,94461.13
2023-05-16T14:26:56.348Z,94453.25
2023-05-16T14:29:23.156Z,94438.38
2023-05-16T14:31:50.065Z,94446.22
2023-05-16T14:34:16.879Z,94465.81
2023-05-16T14:36:43.838Z,94476.09
2023-05-16T14:39:10.714Z,94474.66
2023-05-16T14:41:37.678Z,94474.44
2023-05-16T14:44:04.727Z,94474.91
2023-05-16T14:46:31.553Z,94488.72
2023-05-16T14:48:58.266Z,94482.53
2023-05-16T14:51:24.988Z,94482.75
2023-05-16T14:53:51.676Z,94496.31
2023-05-16T14:56:22.248Z,94494.97
2023-05-16T14:58:49.123Z,94484.50
2023-05-16T15:01:16.797Z,94478.22
2023-05-16T15:03:54.480Z,94493.88
2023-05-16T15:06:21.856Z,94486.66
2023-05-16T15:08:51.241Z,94487.19
2023-05-16T15:11:17.988Z,94474.88
2023-05-16T15:13:44.676Z,94475.59
2023-05-16T15:16:11.485Z,94480.31
2023-05-16T15:18:39.012Z,94452.97
2023-05-16T15:21:06.449Z,94487.16
2023-05-16T15:23:36.781Z,94459.16
2023-05-16T15:26:04.429Z,94422.94
2023-05-16T15:28:31.334Z,94422.84
2023-05-16T15:31:00.640Z,94467.59
2023-05-16T15:33:35.736Z,94425.53
2023-05-16T15:36:02.498Z,94492.56
2023-05-16T15:38:29.372Z,94442.19
2023-05-16T15:41:13.629Z,94405.31
2023-05-16T15:43:43.185Z,94469.75
2023-05-16T15:46:11.328Z,94472.72
2023-05-16T15:48:42.875Z,94469.50
2023-05-16T15:51:09.988Z,94451.25
2023-05-16T15:53:36.752Z,94460.09
2023-05-16T15:56:04.209Z,94454.69
2023-05-16T15:58:31.418Z,94422.06
2023-05-16T16:00:58.609Z,94438.38
2023-05-16T16:03:26.226Z,94395.63
2023-05-16T16:05:53.668Z,94408.06
2023-05-16T16:08:22.488Z,94416.25
2023-05-16T16:10:49.583Z,94394.78
2023-05-16T16:13:16.273Z,94373.06
2023-05-16T16:15:43.583Z,94425.25
2023-05-16T16:18:11.784Z,94396.91
2023-05-16T16:20:38.954Z,94376.56
2023-05-16T16:23:05.944Z,94359.44
2023-05-16T16:25:32.815Z,94360.19
2023-05-16T16:28:00.440Z,94292.03
2023-05-16T16:30:27.997Z,94356.00
2023-05-16T16:32:55.182Z,94381.94
2023-05-16T16:35:24.623Z,94387.16
2023-05-16T16:40:29.280Z,94363.50
2023-05-16T16:42:56.285Z,94379.13
2023-05-16T16:45:23.124Z,94328.00
2023-05-16T16:47:50.111Z,94364.81
2023-05-16T16:50:17.249Z,94344.75
2023-05-16T16:52:44.077Z,94339.25
2023-05-16T16:55:10.923Z,94342.03
2023-05-16T16:57:37.873Z,94346.72
2023-05-16T17:00:05.394Z,94343.78
2023-05-16T17:02:32.492Z,94303.50
2023-05-16T17:04:59.607Z,94328.16
2023-05-16T17:07:26.658Z,94291.34
2023-05-16T17:09:54.678Z,94347.94
2023-05-16T17:12:22.380Z,94357.22
2023-05-16T17:14:50.322Z,94315.03
2023-05-16T17:17:18.708Z,94288.16
2023-05-16T17:19:47.111Z,94354.31
2023-05-16T17:22:14.152Z,94349.53
2023-05-16T17:24:41.516Z,94364.31
2023-05-16T17:27:08.691Z,94308.03
2023-05-16T17:29:35.624Z,94337.38
2023-05-16T17:32:02.263Z,94331.13
2023-05-16T17:34:29.157Z,94331.63
2023-05-16T17:36:56.057Z,94310.41
2023-05-16T17:39:23.148Z,94335.84
2023-05-16T17:41:50.190Z,94344.38
2023-05-16T17:44:16.940Z,94367.56
2023-05-16T17:46:44.416Z,94367.09
2023-05-16T17:49:12.031Z,94403.75
2023-05-16T17:51:49.939Z,94355.94
2023-05-16T17:54:18.588Z,94365.34
2023-05-16T17:56:50.516Z,94355.19
2023-05-16T17:59:17.908Z,94320.06
2023-05-16T18:01:46.683Z,94265.69
2023-05-16T18:04:13.593Z,94272.22
2023-05-16T18:06:41.064Z,94336.34
2023-05-16T18:09:10.112Z,94337.91
2023-05-16T18:11:38.980Z,94376.53
2023-05-16T18:14:06.012Z,94376.25
2023-05-16T18:16:33.025Z,94344.09
2023-05-16T18:19:00.448Z,94317.72
2023-05-16T18:21:28.027Z,94296.31
2023-05-16T18:23:59.066Z,94310.97
2023-05-16T18:26:29.742Z,94342.16
2023-05-16T18:28:56.847Z,94349.13
2023-05-16T18:31:23.937Z,94325.06
2023-05-16T18:33:51.056Z,94337.41
2023-05-16T18:36:21.002Z,94329.69
2023-05-16T18:38:48.052Z,94317.72
2023-05-16T18:41:14.985Z,94296.56
2023-05-16T18:43:42.360Z,94299.06
2023-05-16T18:46:09.318Z,94296.34
2023-05-16T18:48:36.363Z,94303.53
2023-05-16T18:51:03.478Z,94315.72
2023-05-16T18:53:30.315Z,94314.16
2023-05-16T18:56:00.471Z,94312.69
2023-05-16T18:58:27.995Z,94311.41
2023-05-16T19:00:55.123Z,94327.66
2023-05-16T19:03:22.165Z,94293.28
2023-05-16T19:05:49.408Z,94327.13
2023-05-16T19:08:16.516Z,94309.25
2023-05-16T19:10:45.112Z,94307.94
2023-05-16T19:13:12.166Z,94314.81
2023-05-16T19:15:40.044Z,94329.78
2023-05-16T19:18:07.159Z,94337.81
2023-05-16T19:20:35.405Z,94332.56
2023-05-16T19:23:03.661Z,94346.28
2023-05-16T19:25:30.788Z,94333.06
2023-05-16T19:27:57.811Z,94347.00
2023-05-16T19:30:25.597Z,94340.28
2023-05-16T19:33:11.402Z,94365.44
2023-05-16T19:35:42.807Z,94263.19
2023-05-16T19:38:20.799Z,94307.44
2023-05-16T19:40:54.873Z,94288.09
2023-05-16T19:43:26.005Z,94351.72
2023-05-16T19:45:57.167Z,94334.19
2023-05-16T19:48:35.849Z,94248.25
2023-05-16T19:51:04.141Z,94234.75
2023-05-16T19:53:36.121Z,94333.78
2023-05-16T19:56:04.912Z,94268.13
2023-05-16T19:58:34.039Z,94314.13
2023-05-16T20:01:04.588Z,94288.53
2023-05-16T20:03:38.416Z,94312.34
2023-05-16T20:06:06.867Z,94224.44
2023-05-16T20:08:33.922Z,94321.56
2023-05-16T20:11:00.727Z,94255.44
2023-05-16T20:13:30.754Z,94275.84
2023-05-16T20:15:58.047Z,94324.41
2023-05-16T20:18:26.295Z,94340.59
2023-05-16T20:20:53.414Z,94344.16
2023-05-16T20:23:20.262Z,94332.66
2023-05-16T20:25:47.909Z,94338.88
2023-05-16T20:28:17.754Z,94344.06
2023-05-16T20:30:45.099Z,94329.88
2023-05-16T20:33:12.523Z,94330.84
2023-05-16T20:35:39.507Z,94343.50
2023-05-16T20:38:06.438Z,94345.50
2023-05-16T20:40:33.050Z,94332.78
2023-05-16T20:42:59.920Z,94368.41
2023-05-16T20:45:28.649Z,94373.38
2023-05-16T20:47:55.868Z,94361.47
2023-05-16T20:50:22.663Z,94360.97
2023-05-16T20:52:49.462Z,94362.75
2023-05-16T20:55:16.232Z,94349.53
2023-05-16T20:57:43.909Z,94338.38
2023-05-16T21:00:12.490Z,94349.38
2023-05-16T21:02:39.240Z,94357.84
2023-05-16T21:05:23.318Z,94339.91
2023-05-16T21:07:51.974Z,94356.56
2023-05-16T21:10:18.933Z,94345.13
2023-05-16T21:12:51.525Z,94339.38
2023-05-16T21:15:19.110Z,94307.31
2023-05-16T21:17:46.829Z,94291.19
2023-05-16T21:20:13.686Z,94310.63
2023-05-16T21:22:41.143Z,94345.97
2023-05-16T21:25:08.288Z,94359.94
2023-05-16T21:27:35.006Z,94355.94
2023-05-16T21:30:01.918Z,94361.69
2023-05-16T21:32:32.611Z,94358.44
2023-05-16T21:35:04.322Z,94362.69
2023-05-16T21:37:31.026Z,94355.94
2023-05-16T21:39:57.831Z,94355.94
2023-05-16T21:42:24.594Z,94361.44
2023-05-16T21:44:51.590Z,94362.44
2023-05-16T21:47:18.279Z,94354.19
2023-05-16T21:49:45.057Z,94384.09
2023-05-16T21:52:11.833Z,94366.91
2023-05-16T21:54:38.518Z,94373.16
2023-05-16T21:57:06.931Z,94372.66
2023-05-16T21:59:33.661Z,94367.66
2023-05-16T22:02:00.416Z,94370.66
2023-05-16T22:04:27.260Z,94384.88
2023-05-16T22:06:54.213Z,94383.38
2023-05-16T22:09:20.973Z,94400.06
2023-05-16T22:11:47.930Z,94395.09
2023-05-16T22:14:14.935Z,94344.25
2023-05-16T22:16:41.645Z,94388.34
2023-05-16T22:19:09.081Z,94363.94
2023-05-16T22:21:36.160Z,94377.16
2023-05-16T22:24:03.323Z,94366.41
2023-05-16T22:26:30.076Z,94387.84
2023-05-16T22:28:56.842Z,94397.59
2023-05-16T22:31:23.712Z,94388.38
2023-05-16T22:33:50.563Z,94380.41
2023-05-16T22:36:17.586Z,94377.16
2023-05-16T22:38:44.594Z,94373.41
2023-05-16T22:41:11.368Z,94375.16
2023-05-16T22:43:39.537Z,94383.16
2023-05-16T22:46:06.300Z,94379.41
2023-05-16T22:48:33.321Z,94372.91
2023-05-16T22:51:00.106Z,94382.91
2023-05-16T22:53:27.295Z,94408.81
2023-05-16T22:55:57.359Z,94383.88
2023-05-16T22:58:25.026Z,94337.03
2023-05-16T23:00:52.045Z,94327.56
2023-05-16T23:03:19.129Z,94353.72
2023-05-16T23:05:46.544Z,94319.13
2023-05-16T23:08:13.359Z,94292.19
2023-05-16T23:10:40.593Z,94362.44
2023-05-16T23:13:07.523Z,94392.34
2023-05-16T23:15:34.329Z,94358.22
2023-05-16T23:18:01.688Z,94365.91
2023-05-16T23:20:32.133Z,94331.78
2023-05-16T23:22:58.990Z,94386.34
2023-05-16T23:25:26.522Z,94374.16
2023-05-16T23:27:57.717Z,94355.22
2023-05-16T23:30:25.352Z,94381.88
2023-05-16T23:32:52.720Z,94392.56
2023-05-16T23:35:19.661Z,94342.72
2023-05-16T23:37:46.671Z,94377.13
2023-05-16T23:40:13.456Z,94388.09
2023-05-16T23:42:42.983Z,94369.66
2023-05-16T23:45:10.449Z,94379.13
2023-05-16T23:47:37.231Z,94384.38
2023-05-16T23:50:04.222Z,94377.91
2023-05-16T23:52:31.009Z,94361.44
2023-05-16T23:54:58.231Z,94386.63
2023-05-16T23:57:24.965Z,94394.09
2023-05-16T23:59:51.709Z,94382.63
